Cozumel International Airport
MMCZ : now visible

Airfield :











YOU CAN JOIN US ON...

 
LOGIN :

Register | Disclaimer

   EN    FR    IT 

 









Legend :    VFR   Marginal VFR   IFR   Intensive IFR   Very Intensive IFR
Visi :
Ceiling :
>= 8 km
>= 3000ft
5 to 8 km
1000 to 3000 ft
1500m to 5 km
500 to 1000 ft
800 to 1500m
200 to 500 ft
< 800m
< 200 ft
Symbols :   Thunderstorms  Fog  Heavy snow  Heavy precipitations  Wind > 20 kt






- Airport Elevation : 15 ft
- IATA code : CZM


MMCZ - Cozumel International

CURRENT METAR :
  • 222246Z 11009KT 8SM SCT015 30/25 A2993 RMK 8/100

EXPIRED METARs :
  • 222148Z 12008KT 8SM SCT015 30/25 A2994 RMK 8/500
  • 222055Z 10009KT 8SM SCT015 31/24 A2996 RMK SLP150 57010 909 8/500

TAF TAF MMCZ
Valid from the 22 at 18:00 until the 24 at 00:00 UTC


221719Z 2218/2324 13015KT P6SM SCT015
TEMPO 2222/2302 BKN015
FM230200 13010KT P6SM SCT015 BKN250
BECMG 2308/2309 13005KT
PROB40 2311/2315 5SM TSRA BKN015CB
FM231500 13010KT P6SM SCT015 BKN040 BKN250
BECMG 2322/2323 11015KT
MMFR FIR / North America



MET'MAP, your aeronautical weather chart ! - Copyright ORBIFLY December 2007 - Disclaimer

ORBIFLY MET'MAP TEAM :

Programming & Development : Alexandra Zaïnal
Concept & original design : Baudouin d'Aumeries
Assistance for programming : Marc-Olivier Méhu
Technical & hardware support : Manuel Goepfert

Contact : metmap@orbifly.com




SOURCES & CREDITS :

   NOAA       Earth
Advisory